D/T METAR WX W/DIR W/SPE G/SPE TEMP DEWP
25/02/20 14:20 EGBB 251420Z 28007KT 240V320 9999 SHRA SCT010CB BKN024 06/02 Q0996 SHRA W (280°) 8.1mph 6°C 2°C
25/02/20 13:50 EGBB 251350Z 27008KT 9999 VCSH SCT008CB BKN023 05/02 Q0996 RESHRA VCSH W (270°) 9.2mph 5°C 2°C
25/02/20 13:20 EGBB 251320Z 27007KT 250V310 9999 VCSH FEW018CB BKN023 06/02 Q0997 VCSH W (270°) 8.1mph 6°C 2°C
25/02/20 12:50 EGBB 251250Z 28010KT 9999 VCSH FEW013CB BKN018 06/02 Q0997 VCSH W (280°) 11.5mph 6°C 2°C
25/02/20 12:20 EGBB 251220Z 26006KT 200V330 9999 VCSH SCT013CB BKN035 05/03 Q0998 VCSH W (260°) 6.9mph 5°C 3°C
25/02/20 11:50 EGBB 251150Z 27010KT 240V300 9999 -SHRA SCT014 BKN030 05/01 Q0998 -SHRA W (270°) 11.5mph 5°C 1°C
25/02/20 11:20 EGBB 251120Z 25008KT 210V290 9999 BKN032 07/00 Q0998 WSW (250°) 9.2mph 7°C 0°C
25/02/20 10:50 EGBB 251050Z 25008KT 210V280 9999 SCT030 06/01 Q0999 WSW (250°) 9.2mph 6°C 1°C
25/02/20 10:20 EGBB 251020Z 23008KT 200V290 9999 SCT024 SCT038 06/01 Q0999 SW (230°) 9.2mph 6°C 1°C
25/02/20 09:50 EGBB 250950Z 25009KT 200V270 9999 FEW020 06/01 Q0999 WSW (250°) 10.4mph 6°C 1°C
25/02/20 08:50 EGBB 250850Z 22009KT 180V250 9999 FEW018 04/02 Q0999 SW (220°) 10.4mph 4°C 2°C
25/02/20 08:20 EGBB 250820Z 21006KT 180V250 9999 FEW017 04/02 Q1000 SSW (210°) 6.9mph 4°C 2°C
25/02/20 07:50 EGBB 250750Z 21008KT 180V240 9999 SCT018 04/02 Q1000 SSW (210°) 9.2mph 4°C 2°C
25/02/20 07:20 EGBB 250720Z 20006KT 160V240 9999 SCT024 03/01 Q1000 SSW (200°) 6.9mph 3°C 1°C
25/02/20 06:20 EGBB 250620Z 22009KT 180V250 9999 -SHRA SCT023 SCT030 04/01 Q1000 -SHRA SW (220°) 10.4mph 4°C 1°C
25/02/20 05:50 EGBB 250550Z 21007KT 9999 BKN023 04/01 Q1001 SSW (210°) 8.1mph 4°C 1°C
25/02/20 05:20 EGBB 250520Z 21006KT 180V240 9999 FEW024 04/01 Q1001 SSW (210°) 6.9mph 4°C 1°C
25/02/20 04:50 EGBB 250450Z 22005KT 9999 SCT030 04/01 Q1001 SW (220°) 5.8mph 4°C 1°C
25/02/20 04:20 EGBB 250420Z 24005KT 200V290 9999 BKN023 BKN030 04/01 Q1002 WSW (240°) 5.8mph 4°C 1°C
25/02/20 03:50 EGBB 250350Z 23007KT 190V270 9999 FEW025 SCT030 BKN036 04/01 Q1002 SW (230°) 8.1mph 4°C 1°C
25/02/20 03:20 EGBB 250320Z 26009KT 9999 SCT033 04/01 Q1002 W (260°) 10.4mph 4°C 1°C
25/02/20 02:50 EGBB 250250Z 26008KT CAVOK 04/01 Q1002 W (260°) 9.2mph 4°C 1°C
25/02/20 02:20 EGBB 250220Z 26008KT 9999 FEW027 05/01 Q1003 W (260°) 9.2mph 5°C 1°C
25/02/20 01:50 EGBB 250150Z 26009KT 9999 FEW025 05/02 Q1003 W (260°) 10.4mph 5°C 2°C
25/02/20 01:20 EGBB 250120Z 27009KT 9999 FEW025 05/01 Q1003 W (270°) 10.4mph 5°C 1°C
25/02/20 00:50 EGBB 250050Z 27009KT 9999 SCT028 06/01 Q1003 W (270°) 10.4mph 6°C 1°C
25/02/20 00:20 EGBB 250020Z 26008KT 9999 SCT027 06/02 Q1003 W (260°) 9.2mph 6°C 2°C
24/02/20 23:50 EGBB 242350Z 27009KT 9999 SCT025 BKN030 06/02 Q1003 W (270°) 10.4mph 6°C 2°C
24/02/20 23:20 EGBB 242320Z 25008KT 9999 -RA BKN028 06/02 Q1003 -RA WSW (250°) 9.2mph 6°C 2°C
24/02/20 22:50 EGBB 242250Z 26009KT 230V290 9999 SCT032 07/02 Q1003 W (260°) 10.4mph 7°C 2°C
24/02/20 22:20 EGBB 242220Z 26008KT 9999 SCT038 07/02 Q1004 W (260°) 9.2mph 7°C 2°C
24/02/20 21:50 EGBB 242150Z 26009KT 230V290 9999 SCT042 07/02 Q1004 W (260°) 10.4mph 7°C 2°C
24/02/20 21:20 EGBB 242120Z 25008KT 9999 FEW035 SCT046 07/01 Q1004 WSW (250°) 9.2mph 7°C 1°C
24/02/20 20:50 EGBB 242050Z 26010KT 9999 FEW035 SCT048 07/02 Q1004 W (260°) 11.5mph 7°C 2°C
24/02/20 20:20 EGBB 242020Z 26011KT 9999 SCT033 BKN048 07/02 Q1004 W (260°) 12.7mph 7°C 2°C
24/02/20 19:50 EGBB 241950Z 26010KT 220V290 9999 SCT033 BKN040 08/02 Q1004 W (260°) 11.5mph 8°C 2°C
24/02/20 19:20 EGBB 241920Z 28009KT 9999 SCT033 BKN039 08/01 Q1004 W (280°) 10.4mph 8°C 1°C
24/02/20 18:20 EGBB 241820Z 28012KT 9999 SCT032 BKN037 09/03 Q1003 W (280°) 13.8mph 9°C 3°C
24/02/20 17:50 EGBB 241750Z 28016KT 9999 BKN030 10/04 Q1002 W (280°) 18.4mph 10°C 4°C
24/02/20 17:20 EGBB 241720Z 27014G26KT 240V300 9999 BKN032 11/05 Q1001 W (270°) 16.1mph 29.9mph 11°C 5°C
24/02/20 16:50 EGBB 241650Z 28016KT 9999 SCT033 BKN039 12/05 Q1001 W (280°) 18.4mph 12°C 5°C
24/02/20 16:20 EGBB 241620Z 27014G25KT 240V300 9999 BKN030 12/06 Q1001 W (270°) 16.1mph 28.8mph 12°C 6°C
24/02/20 15:50 EGBB 241550Z 26014G24KT 9999 BKN031 12/07 Q1000 W (260°) 16.1mph 27.6mph 12°C 7°C
24/02/20 15:20 EGBB 241520Z 25014G27KT 9999 BKN025 12/08 Q1000 WSW (250°) 16.1mph 31.1mph 12°C 8°C
24/02/20 14:20 EGBB 241420Z 25014G24KT 9999 BKN022 13/09 Q1000 WSW (250°) 16.1mph 27.6mph 13°C 9°C
24/02/20 13:50 EGBB 241350Z 24017G30KT 9999 BKN025 13/09 Q1000 WSW (240°) 19.6mph 34.5mph 13°C 9°C
24/02/20 12:50 EGBB 241250Z 22015KT 180V240 9999 BKN018 11/10 Q1001 SW (220°) 17.3mph 11°C 10°C
24/02/20 12:20 EGBB 241220Z 22014G26KT 180V240 9999 SCT010 BKN020 11/10 Q1001 SW (220°) 16.1mph 29.9mph 11°C 10°C